Lebanon, IN

3:47 PM EST on November 28, 2014 (GMT -0500)
Indianapolis International | Change Station
CLOSE
Current Station
Airport
Location: Indianapolis,
Elevation: 807 ft
Nearby Weather Stations

Elev 807 ft 39.71 °N, 86.30 °W | Updated 53 minutes ago

Partly Cloudy
Partly Cloudy
32 °F
Feels Like 22 °F
N
15
Wind Variable Wind from SE

Today
High -- | Low -- °F
--% Chance of Precip.
Yesterday
High -- | Low -- °F
Precip. -- in
7:45 AM 5:21 PM
Waxing Crescent, 44% visible
Pressure 30.17 in
Visibility 10.0 miles
Clouds Few 12000 ft
Mostly Cloudy 24000 ft
Windchill 22 °F
Dew Point 19 °F
Humidity 59%
Rainfall 0.00 in
Snow Depth Not available.
UV 1 out of 12
Pollen .10 out of 12
Air Quality Not available.
Flu Activity Not available.
METAR KIND 281954Z 14013KT 10SM FEW120 BKN240 00/M07 A3014 RMK AO2 SLP217 T00001072

More Conditions Fewer Conditions

Pressure 30.17 in
Visibility 10.0 miles
Clouds Few 12000 ft
Mostly Cloudy 24000 ft
Windchill 22 °F
Dew Point 19 °F
Humidity 59%
Rainfall 0.00 in
Snow Depth Not available.
UV 1 out of 12
Pollen .10 out of 12
Air Quality Not available.
Flu Activity Not available.
METAR KIND 281954Z 14013KT 10SM FEW120 BKN240 00/M07 A3014 RMK AO2 SLP217 T00001072

More Conditions Fewer Conditions

10-Day Weather Forecast

Almanac

Astronomy

Nov. 28, 2014 Rise Set
Actual Time
Civil Twilight
Nautical Twilight
Astronomical Twilight
Moon
Length of Visible Light
Length of Day
Tomorrow will be .
, % of the Moon is Illuminated

Today's Extremes

State Highs State Lows

Community

WunderPhotos

Upload Photos

1,774,287 photos uploaded!

WunderBlogs® & News

Nearby

Air Quality

  Air Quality AQ Index Pollutant
Not available.

Snow Depth

Station Depth Elevation

Earthquake Activity

City Distance Mag. Time & Date
Minimum magnitude displayed is 2.5.

Coastal Water Temperatures

Place Temperature

Nearby Weather Stations